Aviation Digital Data Service (ADDS)

Output produced by METARs form (0745 UTC 22 December 2014)
found at http://www.aviationweather.gov/adds/metars/
 
KSAV 220653Z AUTO 02003KT 7SM OVC003 09/08 A3006 RMK AO2 SLP177 T00890078 TSNO